Time;durP1;ratioP1;P1;durP2;ratioP2;P2;SDS_P1;SDS_P2;PMS_P1;PMS_P2;Temp;Humidity;BMP_temperature;BMP_pressure;BME280_temperature;BME280_humidity;BME280_pressure;Samples;Min_cycle;Max_cycle;Signal;HPM_P1;HPM_P2
2022/12/05 00:02:55;;;;;;;;;;;;;;;18.08;58.14;101149.81;2267252;77;51507;-76
2022/12/05 00:05:56;;;;;;;;;;;;;;;18.05;58.21;101149.14;2287734;77;51491;-76
2022/12/05 00:08:58;;;;;;;;;;;;;;;18.02;58.28;101150.81;2248785;79;51451;-75
2022/12/05 00:11:59;;;;;;;;;;;;;;;17.99;58.33;101150.33;2248501;79;51578;-75
2022/12/05 00:15:01;;;;;;;;;;;;;;;17.95;58.41;101149.80;2248227;78;50692;-76
2022/12/05 00:18:03;;;;;;;;;;;;;;;17.91;58.38;101150.33;2248478;79;51411;-75
2022/12/05 00:21:05;;;;;;;;;;;;;;;17.89;58.42;101154.50;2248352;78;51455;-75
2022/12/05 00:24:07;;;;;;;;;;;;;;;17.86;58.59;101145.47;2248280;78;50906;-75
2022/12/05 00:27:08;;;;;;;;;;;;;;;17.92;58.51;101154.67;2248544;78;50432;-74
2022/12/05 00:30:10;;;;;;;;;;;;;;;17.97;58.28;101147.80;2236250;79;50415;-76
2022/12/05 00:33:12;;;;;;;;;;;;;;;18.01;58.19;101153.17;2248452;79;51505;-75
2022/12/05 00:36:14;;;;;;;;;;;;;;;18.05;58.13;101158.51;2263793;78;50326;-75
2022/12/05 00:39:16;;;;;;;;;;;;;;;18.11;57.98;101160.19;2220710;78;50144;-75
2022/12/05 00:42:17;;;;;;;;;;;;;;;18.12;57.90;101164.55;2232964;79;51432;-75
2022/12/05 00:45:19;;;;;;;;;;;;;;;18.08;57.93;101165.88;2249422;79;51471;-75
2022/12/05 00:48:20;;;;;;;;;;;;;;;18.04;57.93;101163.55;2232709;79;50285;-76
2022/12/05 00:51:25;;;;;;;;;;;;;;;18.04;57.99;101158.70;2233704;79;51186;-75
2022/12/05 00:54:27;;;;;;;;;;;;;;;18.01;58.04;101157.70;2249231;77;24674;-75
2022/12/05 00:57:28;;;;;;;;;;;;;;;17.98;58.11;101162.02;2233466;79;50696;-75
2022/12/05 01:00:30;;;;;;;;;;;;;;;17.94;58.13;101160.19;2233611;79;51385;-76
2022/12/05 01:03:32;;;;;;;;;;;;;;;17.91;58.18;101156.52;2233747;79;52356;-75
2022/12/05 01:06:33;;;;;;;;;;;;;;;17.93;58.46;101150.50;2257149;78;50252;-76
2022/12/05 01:09:35;;;;;;;;;;;;;;;17.91;58.84;101149.81;2287319;78;50402;-74
2022/12/05 01:12:36;;;;;;;;;;;;;;;17.97;58.77;101146.97;2273755;78;50621;-74
2022/12/05 01:15:38;;;;;;;;;;;;;;;18.03;58.60;101145.81;2248446;78;51645;-75
2022/12/05 01:18:39;;;;;;;;;;;;;;;18.09;58.30;101145.64;2287349;78;51569;-76
2022/12/05 01:21:41;;;;;;;;;;;;;;;18.09;58.28;101143.47;2273882;78;51438;-76
2022/12/05 01:24:43;;;;;;;;;;;;;;;18.06;58.50;101137.44;2287148;78;51578;-75
2022/12/05 01:27:44;;;;;;;;;;;;;;;18.04;58.50;101140.78;2273637;78;50058;-76
2022/12/05 01:30:46;;;;;;;;;;;;;;;18.00;58.61;101130.06;2273796;78;50493;-76
2022/12/05 01:33:48;;;;;;;;;;;;;;;17.98;58.65;101140.12;2286980;78;50476;-76
2022/12/05 01:36:50;;;;;;;;;;;;;;;17.96;58.58;101130.08;2273512;78;51590;-75
2022/12/05 01:39:51;;;;;;;;;;;;;;;17.93;58.59;101129.55;2237314;78;50998;-75
2022/12/05 01:42:53;;;;;;;;;;;;;;;17.90;58.75;101128.05;2233116;79;51495;-76
2022/12/05 01:45:55;;;;;;;;;;;;;;;17.89;58.84;101128.23;2249162;78;51350;-75
2022/12/05 01:48:57;;;;;;;;;;;;;;;17.90;58.89;101125.37;2234847;79;52530;-75
2022/12/05 01:52:04;;;;;;;;;;;;;;;17.94;58.83;101128.06;2241819;77;51616;-76
2022/12/05 01:55:07;;;;;;;;;;;;;;;17.98;58.80;101127.21;2260387;78;50362;-74
2022/12/05 01:58:08;;;;;;;;;;;;;;;18.01;58.70;101121.04;2252173;78;51643;-75
2022/12/05 02:01:10;;;;;;;;;;;;;;;18.05;58.59;101121.53;2273625;77;50615;-75
2022/12/05 02:04:12;;;;;;;;;;;;;;;18.11;58.40;101122.22;2273583;78;51294;-76
2022/12/05 02:07:14;;;;;;;;;;;;;;;18.11;58.28;101122.22;2287131;78;50287;-75
2022/12/05 02:10:15;;;;;;;;;;;;;;;18.09;58.32;101123.39;2282712;77;50354;-75
2022/12/05 02:13:18;;;;;;;;;;;;;;;18.06;58.34;101118.70;2261097;77;50364;-75
2022/12/05 02:16:37;;;;;;;;;;;;;;;18.02;58.46;101116.52;2249576;77;49690;-76
2022/12/05 02:19:57;;;;;;;;;;;;;;;17.98;58.53;101112.48;2301933;76;51506;-75
2022/12/05 02:23:09;;;;;;;;;;;;;;;17.95;58.55;101120.35;2302502;77;50395;-74
2022/12/05 02:26:29;;;;;;;;;;;;;;;17.92;58.57;101119.86;2266353;77;52696;-75
2022/12/05 02:29:39;;;;;;;;;;;;;;;17.92;58.57;101120.69;2265378;77;51006;-75
2022/12/05 02:32:45;;;;;;;;;;;;;;;17.91;58.57;101124.89;2302433;77;51474;-76
2022/12/05 02:35:51;;;;;;;;;;;;;;;17.93;58.62;101119.70;2301916;77;52151;-76
2022/12/05 02:38:55;;;;;;;;;;;;;;;18.00;58.46;101118.52;2302405;77;52265;-75
2022/12/05 02:42:04;;;;;;;;;;;;;;;18.03;58.32;101120.38;2253483;78;52681;-74
2022/12/05 02:45:08;;;;;;;;;;;;;;;18.09;58.16;101123.39;2249259;79;50339;-74
2022/12/05 02:48:10;;;;;;;;;;;;;;;18.08;58.13;101115.83;2249560;78;50320;-74
2022/12/05 02:51:12;;;;;;;;;;;;;;;18.08;58.15;101116.34;2249546;79;51559;-76
2022/12/05 02:54:15;;;;;;;;;;;;;;;18.05;58.18;101121.53;2248513;78;51708;-75
2022/12/05 02:57:17;;;;;;;;;;;;;;;18.03;58.22;101112.82;2249616;79;50420;-75
2022/12/05 03:00:19;;;;;;;;;;;;;;;17.98;58.29;101109.33;2249523;79;50319;-76
2022/12/05 03:03:20;;;;;;;;;;;;;;;17.95;58.32;101098.93;2249358;78;50279;-75
2022/12/05 03:06:27;;;;;;;;;;;;;;;17.93;58.34;101100.97;2248749;78;52674;-75
2022/12/05 03:09:30;;;;;;;;;;;;;;;17.90;58.39;101097.77;2250714;77;53137;-75
2022/12/05 03:12:33;;;;;;;;;;;;;;;17.90;58.54;101101.27;2264626;78;51559;-75
2022/12/05 03:15:36;;;;;;;;;;;;;;;17.95;58.43;101100.27;2251321;77;50661;-75
2022/12/05 03:18:45;;;;;;;;;;;;;;;17.98;58.28;101095.08;2273521;77;51206;-75
2022/12/05 03:21:48;;;;;;;;;;;;;;;18.03;58.12;101099.43;2280129;78;51680;-75
2022/12/05 03:24:50;;;;;;;;;;;;;;;18.08;57.99;101105.63;2281062;78;51499;-75
2022/12/05 03:27:59;;;;;;;;;;;;;;;18.11;57.91;101098.59;2281250;78;51444;-74
2022/12/05 03:31:02;;;;;;;;;;;;;;;18.14;57.83;101099.62;2194490;79;51723;-76
2022/12/05 03:34:03;;;;;;;;;;;;;;;18.10;57.82;101098.27;2219144;79;50512;-74
2022/12/05 03:37:06;;;;;;;;;;;;;;;18.10;57.83;101098.27;2219309;79;50262;-75
2022/12/05 03:40:15;;;;;;;;;;;;;;;18.07;57.88;101106.14;2195014;79;52680;-75
2022/12/05 03:43:24;;;;;;;;;;;;;;;18.04;57.94;101106.48;2193771;80;52382;-75
2022/12/05 03:46:36;;;;;;;;;;;;;;;17.99;57.99;101102.95;2219137;79;51461;-75
2022/12/05 03:49:45;;;;;;;;;;;;;;;17.96;58.05;101099.80;2219162;78;49952;-75
2022/12/05 03:52:47;;;;;;;;;;;;;;;17.92;58.11;101091.24;2218771;78;50291;-77
2022/12/05 03:55:50;;;;;;;;;;;;;;;17.91;58.25;101100.29;2196433;79;52455;-76
2022/12/05 03:58:53;;;;;;;;;;;;;;;17.94;58.22;101095.10;2213824;79;50424;-75
2022/12/05 04:01:55;;;;;;;;;;;;;;;17.99;58.09;101092.25;2210053;80;50026;-75
2022/12/05 04:04:58;;;;;;;;;;;;;;;18.05;57.91;101090.22;2210205;80;50625;-75
2022/12/05 04:08:01;;;;;;;;;;;;;;;18.10;57.79;101095.08;2227192;79;50612;-73
2022/12/05 04:11:04;;;;;;;;;;;;;;;18.12;57.70;101096.27;2249068;78;51636;-75
2022/12/05 04:14:07;;;;;;;;;;;;;;;18.10;57.79;101100.95;2249268;78;50774;-75
2022/12/05 04:17:10;;;;;;;;;;;;;;;18.06;57.86;101090.58;2250878;77;50310;-75
2022/12/05 04:23:32;;;;;;;;;;;;;;;18.00;57.96;101097.92;2281185;78;23351;-76
2022/12/05 04:26:34;;;;;;;;;;;;;;;17.98;58.05;101090.59;2280922;77;51464;-75
2022/12/05 04:29:37;;;;;;;;;;;;;;;17.94;58.09;101091.09;2281136;78;50314;-74
2022/12/05 04:32:40;;;;;;;;;;;;;;;17.91;58.17;101098.95;2257381;77;51287;-75
2022/12/05 04:35:46;;;;;;;;;;;;;;;17.92;58.26;101091.75;2280928;78;50440;-75
2022/12/05 04:38:55;;;;;;;;;;;;;;;17.93;58.25;101092.08;2281170;77;50245;-76
2022/12/05 04:42:01;;;;;;;;;;;;;;;17.96;58.19;101093.94;2281250;78;50389;-75
2022/12/05 04:45:05;;;;;;;;;;;;;;;18.01;58.08;101099.62;2257009;77;52604;-75
2022/12/05 04:48:07;;;;;;;;;;;;;;;18.04;57.93;101093.92;2283233;77;51304;-76
2022/12/05 04:51:09;;;;;;;;;;;;;;;18.09;57.85;101091.25;2274291;78;50777;-76
2022/12/05 04:54:13;;;;;;;;;;;;;;;18.13;57.75;101098.75;2257860;78;50227;-75
2022/12/05 04:57:19;;;;;;;;;;;;;;;18.13;57.69;101098.75;2237183;79;51029;-76
2022/12/05 05:00:20;;;;;;;;;;;;;;;18.14;57.71;101100.95;2248369;79;51491;-75
2022/12/05 05:03:26;;;;;;;;;;;;;;;18.11;57.75;101094.58;2248267;78;51517;-73
2022/12/05 05:06:29;;;;;;;;;;;;;;;18.08;57.76;101102.95;2248044;78;50347;-73
2022/12/05 05:09:31;;;;;;;;;;;;;;;18.03;57.89;101089.58;2248409;77;50340;-72
2022/12/05 05:12:32;;;;;;;;;;;;;;;18.01;57.99;101098.28;2252747;77;50389;-74
2022/12/05 05:15:34;;;;;;;;;;;;;;;17.96;58.22;101093.94;2288471;77;50298;-72
2022/12/05 05:18:35;;;;;;;;;;;;;;;17.93;58.28;101096.95;2287104;78;50320;-72
2022/12/05 05:21:38;;;;;;;;;;;;;;;17.94;58.39;101092.42;2273728;78;51689;-73
2022/12/05 05:24:39;;;;;;;;;;;;;;;17.96;58.49;101091.25;2273477;78;49937;-72
2022/12/05 05:27:41;;;;;;;;;;;;;;;18.00;58.41;101099.27;2277181;77;50183;-73
2022/12/05 05:30:42;;;;;;;;;;;;;;;18.08;58.17;101100.27;2248368;78;50350;-72
2022/12/05 05:33:44;;;;;;;;;;;;;;;18.11;58.01;101104.81;2236266;79;49563;-74
2022/12/05 05:36:46;;;;;;;;;;;;;;;18.11;58.04;101098.59;2236098;79;52173;-74
2022/12/05 05:39:47;;;;;;;;;;;;;;;18.10;58.26;101099.09;2242366;77;50257;-74
2022/12/05 05:42:49;;;;;;;;;;;;;;;18.08;58.48;101102.95;2273579;78;50101;-74
2022/12/05 05:45:51;;;;;;;;;;;;;;;18.04;58.47;101100.62;2248501;78;52585;-74
2022/12/05 05:48:53;;;;;;;;;;;;;;;18.01;58.39;101095.60;2273672;78;50306;-74
2022/12/05 05:51:54;;;;;;;;;;;;;;;17.97;58.39;101094.25;2273672;78;50233;-75
2022/12/05 05:54:56;;;;;;;;;;;;;;;17.94;58.43;101100.45;2273381;77;50244;-76
2022/12/05 05:57:57;;;;;;;;;;;;;;;17.92;58.35;101099.27;2250204;77;50094;-73
2022/12/05 06:01:04;;;;;;;;;;;;;;;17.93;58.34;101101.44;2291550;77;51408;-74
2022/12/05 06:04:06;;;;;;;;;;;;;;;17.95;58.30;101100.78;2290332;76;50303;-73
2022/12/05 06:07:08;;;;;;;;;;;;;;;17.98;58.24;101107.99;2291561;77;51671;-73
2022/12/05 06:10:09;;;;;;;;;;;;;;;18.01;58.15;101110.33;2267525;77;52362;-72
2022/12/05 06:13:11;;;;;;;;;;;;;;;18.03;58.04;101104.31;2272025;77;52105;-74
2022/12/05 06:16:13;;;;;;;;;;;;;;;18.09;58.19;101110.00;2277772;77;49885;-72
2022/12/05 06:19:14;;;;;;;;;;;;;;;18.14;57.98;101111.16;2287882;78;50965;-74
2022/12/05 06:22:16;;;;;;;;;;;;;;;18.13;57.89;101109.98;2260304;77;51476;-74
2022/12/05 06:25:17;;;;;;;;;;;;;;;18.11;57.89;101110.64;2259687;78;51406;-75
2022/12/05 06:28:19;;;;;;;;;;;;;;;18.09;57.84;101113.50;2259833;78;51499;-76
2022/12/05 06:31:21;;;;;;;;;;;;;;;18.05;58.03;101112.16;2287308;78;51416;-75
2022/12/05 06:34:23;;;;;;;;;;;;;;;18.01;58.11;101114.86;2259480;78;50126;-75
2022/12/05 06:37:25;;;;;;;;;;;;;;;17.97;58.33;101113.50;2260015;78;50721;-75
2022/12/05 06:40:26;;;;;;;;;;;;;;;17.94;58.53;101120.03;2259717;78;50706;-75
2022/12/05 06:43:28;;;;;;;;;;;;;;;17.92;58.53;101116.67;2287001;77;51571;-75
2022/12/05 06:46:29;;;;;;;;;;;;;;;17.91;58.62;101117.69;2259735;78;52385;-73
2022/12/05 06:49:32;;;;;;;;;;;;;;;17.95;58.69;101123.03;2273791;78;50307;-73
2022/12/05 06:52:33;;;;;;;;;;;;;;;18.00;58.62;101123.36;2273805;78;51545;-72
2022/12/05 06:55:35;;;;;;;;;;;;;;;18.05;58.48;101134.41;2273522;77;51514;-73
2022/12/05 06:58:36;;;;;;;;;;;;;;;18.03;58.54;101136.92;2248626;78;52357;-72
2022/12/05 07:01:39;;;;;;;;;;;;;;;18.02;58.53;101144.12;2273500;78;50519;-72
2022/12/05 07:04:41;;;;;;;;;;;;;;;18.00;58.54;101134.58;2286998;78;50769;-72
2022/12/05 07:07:42;;;;;;;;;;;;;;;17.97;58.54;101133.08;2273877;78;51437;-73
2022/12/05 07:10:45;;;;;;;;;;;;;;;17.96;58.44;101133.27;2248500;78;53813;-73
2022/12/05 07:13:47;;;;;;;;;;;;;;;17.93;58.47;101134.44;2286519;77;51425;-72
2022/12/05 07:16:49;;;;;;;;;;;;;;;17.89;58.52;101144.30;2262579;78;50304;-73
2022/12/05 07:19:51;;;;;;;;;;;;;;;17.88;58.50;101141.27;2243328;78;51555;-73
2022/12/05 07:22:53;;;;;;;;;;;;;;;17.90;58.50;101152.65;2256920;78;51678;-73
2022/12/05 07:25:56;;;;;;;;;;;;;;;17.98;58.33;101141.47;2280616;78;51533;-73
2022/12/05 07:28:58;;;;;;;;;;;;;;;18.06;58.14;101152.17;2276235;78;51540;-73
2022/12/05 07:31:59;;;;;;;;;;;;;;;18.09;58.04;101150.17;2273483;77;50719;-74
2022/12/05 07:35:01;;;;;;;;;;;;;;;18.15;57.86;101155.67;2269287;77;52312;-74
2022/12/05 07:38:02;;;;;;;;;;;;;;;18.17;57.83;101155.01;2242623;78;50280;-74
2022/12/05 07:41:06;;;;;;;;;;;;;;;18.26;57.63;101149.13;2249461;79;50310;-74
2022/12/05 07:44:09;;;;;;;;;;;;;;;18.24;57.61;101152.00;2248830;78;50297;-74
2022/12/05 07:47:10;;;;;;;;;;;;;;;18.24;57.48;101145.81;2246308;78;51723;-74
2022/12/05 07:50:12;;;;;;;;;;;;;;;18.24;57.46;101152.00;2278411;77;51568;-74
2022/12/05 07:53:14;;;;;;;;;;;;;;;18.16;57.58;101149.80;2273345;77;50429;-74
2022/12/05 07:56:16;;;;;;;;;;;;;;;18.11;57.68;101146.80;2288099;77;50630;-74
2022/12/05 07:59:17;;;;;;;;;;;;;;;18.06;57.71;101138.78;2274468;78;51071;-73
2022/12/05 08:02:19;;;;;;;;;;;;;;;18.04;57.68;101144.80;2274441;77;51485;-74
2022/12/05 08:05:21;;;;;;;;;;;;;;;18.04;57.66;101147.98;2274639;78;50209;-74
2022/12/05 08:08:22;;;;;;;;;;;;;;;18.10;57.59;101146.47;2288319;78;50539;-74
2022/12/05 08:11:25;;;;;;;;;;;;;;;18.11;57.53;101153.02;2274745;77;51660;-74
2022/12/05 08:14:27;;;;;;;;;;;;;;;18.12;57.52;101152.50;2274721;77;50738;-73
2022/12/05 08:17:29;;;;;;;;;;;;;;;18.18;57.41;101156.67;2288485;78;50723;-73
2022/12/05 08:20:30;;;;;;;;;;;;;;;18.20;57.43;101157.34;2283021;77;50642;-73
2022/12/05 08:23:32;;;;;;;;;;;;;;;18.28;57.26;101159.19;2258327;78;52515;-74
2022/12/05 08:26:34;;;;;;;;;;;;;;;18.28;57.20;101149.80;2229939;79;50711;-74
2022/12/05 08:29:36;;;;;;;;;;;;;;;18.27;57.21;101155.67;2273383;77;51491;-74
2022/12/05 08:32:38;;;;;;;;;;;;;;;18.28;57.08;101157.84;2267652;78;51662;-74
2022/12/05 08:35:39;;;;;;;;;;;;;;;18.23;57.11;101150.30;2219667;78;52397;-74
2022/12/05 08:38:41;;;;;;;;;;;;;;;18.22;57.15;101154.00;2267575;78;51576;-74
2022/12/05 08:41:43;;;;;;;;;;;;;;;18.15;57.31;101148.97;2244124;78;52704;-74
2022/12/05 08:44:45;;;;;;;;;;;;;;;18.13;57.57;101154.16;2262707;78;50781;-75
2022/12/05 08:47:46;;;;;;;;;;;;;;;18.08;57.83;101153.83;2227573;79;51161;-75
2022/12/05 08:50:48;;;;;;;;;;;;;;;18.06;59.20;101152.67;2276192;77;50618;-75
2022/12/05 08:53:49;;;;;;;;;;;;;;;18.12;58.34;101153.84;2290914;77;50581;-75
2022/12/05 08:56:52;;;;;;;;;;;;;;;18.17;58.27;101158.20;2265822;78;51645;-74
2022/12/05 08:59:54;;;;;;;;;;;;;;;18.20;58.09;101155.17;2233694;77;52460;-75
2022/12/05 09:02:56;;;;;;;;;;;;;;;18.26;58.02;101150.47;2258262;77;51659;-75
2022/12/05 09:06:05;;;;;;;;;;;;;;;18.29;57.89;101154.18;2250091;78;51416;-75
2022/12/05 09:09:07;;;;;;;;;;;;;;;18.34;57.78;101159.00;2284456;77;50854;-75
2022/12/05 09:12:13;;;;;;;;;;;;;;;18.37;57.56;101155.50;2274575;77;51160;-76
2022/12/05 09:15:15;;;;;;;;;;;;;;;18.28;56.12;101156.50;2288214;78;51530;-74
2022/12/05 09:18:16;;;;;;;;;;;;;;;17.87;52.14;101153.81;2243937;78;50144;-73
2022/12/05 09:21:19;;;;;;;;;;;;;;;17.79;52.26;101164.48;2282176;77;50761;-74
2022/12/05 09:24:20;;;;;;;;;;;;;;;17.80;52.76;101160.36;2279643;78;51426;-74
2022/12/05 09:27:22;;;;;;;;;;;;;;;17.81;53.30;101156.66;2260096;78;52370;-72
2022/12/05 09:30:23;;;;;;;;;;;;;;;17.92;53.61;101156.84;2288140;78;50292;-74
2022/12/05 09:33:25;;;;;;;;;;;;;;;17.98;53.62;101158.87;2265937;77;50097;-73
2022/12/05 09:36:27;;;;;;;;;;;;;;;18.03;53.73;101148.49;2266385;77;50364;-73
2022/12/05 09:39:29;;;;;;;;;;;;;;;18.08;53.82;101140.44;2240558;77;50004;-73
2022/12/05 09:42:44;;;;;;;;;;;;;;;18.10;53.97;101151.83;2287560;77;50335;-74
2022/12/05 09:45:47;;;;;;;;;;;;;;;18.18;53.93;101151.31;2287925;78;50377;-73
2022/12/05 09:48:49;;;;;;;;;;;;;;;18.25;54.04;101148.30;2287597;78;50801;-74
2022/12/05 09:51:51;;;;;;;;;;;;;;;18.33;53.96;101148.80;2287082;77;50262;-73
2022/12/05 09:54:52;;;;;;;;;;;;;;;18.39;53.97;101145.42;2264345;78;49957;-73
2022/12/05 09:57:56;;;;;;;;;;;;;;;18.43;53.99;101149.97;2288236;78;50682;-74
2022/12/05 10:00:59;;;;;;;;;;;;;;;18.38;54.14;101142.42;2288242;78;51487;-73
2022/12/05 10:04:08;;;;;;;;;;;;;;;18.38;54.16;101138.92;2249305;78;52439;-73
2022/12/05 10:07:18;;;;;;;;;;;;;;;18.31;54.40;101146.78;2286316;77;50433;-73
2022/12/05 10:10:21;;;;;;;;;;;;;;;18.28;54.46;101150.64;2288364;77;51604;-73
2022/12/05 10:13:33;;;;;;;;;;;;;;;18.21;54.58;101148.80;2287884;77;51424;-74
2022/12/05 10:16:36;;;;;;;;;;;;;;;18.16;54.64;101138.62;2293247;77;51573;-74
2022/12/05 10:19:39;;;;;;;;;;;;;;;18.13;54.75;101130.06;2252421;78;50659;-73
2022/12/05 10:22:47;;;;;;;;;;;;;;;18.16;54.81;101131.92;2280784;77;50472;-73
2022/12/05 10:25:51;;;;;;;;;;;;;;;18.26;54.83;101143.77;2275024;78;50514;-73
2022/12/05 10:28:57;;;;;;;;;;;;;;;18.37;54.51;101138.09;2274904;78;52600;-74
2022/12/05 10:32:07;;;;;;;;;;;;;;;18.36;54.57;101139.59;2288404;78;51546;-73
2022/12/05 10:35:10;;;;;;;;;;;;;;;18.32;54.72;101142.28;2288299;77;50824;-73
2022/12/05 10:38:13;;;;;;;;;;;;;;;18.26;54.84;101145.11;2285303;78;51456;-73
2022/12/05 10:41:15;;;;;;;;;;;;;;;18.23;54.93;101136.08;2304842;77;51976;-73
2022/12/05 10:44:16;;;;;;;;;;;;;;;18.15;55.08;101141.45;2295053;77;50741;-74
2022/12/05 10:47:18;;;;;;;;;;;;;;;18.10;55.18;101123.70;2288472;78;51856;-73
2022/12/05 10:50:21;;;;;;;;;;;;;;;18.08;55.24;101133.23;2288463;77;51458;-73
2022/12/05 10:53:39;;;;;;;;;;;;;;;18.07;55.32;101134.25;2274837;77;51243;-72
2022/12/05 10:56:42;;;;;;;;;;;;;;;18.15;55.21;101137.44;2258397;78;51550;-73
2022/12/05 10:59:45;;;;;;;;;;;;;;;18.18;55.22;101137.92;2275606;78;50224;-74
2022/12/05 11:02:47;;;;;;;;;;;;;;;18.21;55.22;101138.09;2250472;78;50392;-74
2022/12/05 11:05:52;;;;;;;;;;;;;;;18.27;55.15;101140.11;2250116;79;51813;-74
2022/12/05 11:08:55;;;;;;;;;;;;;;;18.31;55.15;101133.39;2250606;79;50427;-73
2022/12/05 11:11:58;;;;;;;;;;;;;;;18.36;55.14;101128.87;2250675;79;51610;-73
2022/12/05 11:15:01;;;;;;;;;;;;;;;18.40;55.24;101123.01;2268029;77;51723;-73
2022/12/05 11:18:05;;;;;;;;;;;;;;;18.48;55.05;101120.30;2260201;77;51043;-73
2022/12/05 11:21:10;;;;;;;;;;;;;;;18.47;55.17;101126.69;2279806;78;51537;-73
2022/12/05 11:24:31;;;;;;;;;;;;;;;18.46;55.35;101129.02;2288036;77;51570;-74
2022/12/05 11:27:33;;;;;;;;;;;;;;;18.42;55.56;101127.70;2288308;78;50415;-73
2022/12/05 11:30:34;;;;;;;;;;;;;;;18.36;55.82;101126.19;2271765;78;51532;-74
2022/12/05 11:33:36;;;;;;;;;;;;;;;18.32;56.16;101117.67;2288314;77;51571;-73
2022/12/05 11:36:39;;;;;;;;;;;;;;;18.28;56.39;101127.87;2288408;76;51625;-74
2022/12/05 11:39:41;;;;;;;;;;;;;;;18.19;56.60;101120.86;2287527;77;51598;-73
2022/12/05 11:42:47;;;;;;;;;;;;;;;18.21;56.59;101130.05;2244139;78;52263;-73
2022/12/05 11:45:53;;;;;;;;;;;;;;;18.22;56.82;101131.23;2287453;77;50777;-74
2022/12/05 11:48:59;;;;;;;;;;;;;;;18.35;56.58;101128.55;2275424;78;50710;-74
2022/12/05 11:52:02;;;;;;;;;;;;;;;18.41;56.34;101127.86;2249208;79;51634;-74
2022/12/05 11:55:21;;;;;;;;;;;;;;;18.40;56.30;101116.31;2238630;79;50118;-73
2022/12/05 11:58:24;;;;;;;;;;;;;;;18.36;56.35;101109.61;2284668;77;50219;-73
2022/12/05 12:01:27;;;;;;;;;;;;;;;18.35;56.38;101107.95;2288395;78;50676;-74
2022/12/05 12:04:37;;;;;;;;;;;;;;;18.26;56.64;101104.45;2286828;77;50263;-74
2022/12/05 12:07:58;;;;;;;;;;;;;;;18.21;56.88;101105.95;2267785;77;50984;-74
2022/12/05 12:11:17;;;;;;;;;;;;;;;18.16;57.26;101101.13;2303585;76;51506;-73
2022/12/05 12:14:20;;;;;;;;;;;;;;;18.17;57.24;101094.75;2303135;77;51559;-74
2022/12/05 12:17:32;;;;;;;;;;;;;;;18.19;57.20;101102.12;2280050;77;51616;-74
2022/12/05 12:20:52;;;;;;;;;;;;;;;18.26;56.97;101099.09;2249441;78;51595;-74
2022/12/05 12:23:58;;;;;;;;;;;;;;;18.28;56.99;101094.38;2249209;78;50408;-75
2022/12/05 12:27:05;;;;;;;;;;;;;;;18.34;56.83;101102.27;2249320;79;51522;-74
2022/12/05 12:30:08;;;;;;;;;;;;;;;18.40;56.69;101095.38;2249147;79;50071;-75
2022/12/05 12:33:11;;;;;;;;;;;;;;;18.44;56.61;101101.55;2237218;79;51341;-75
2022/12/05 12:36:20;;;;;;;;;;;;;;;18.46;56.58;101106.23;2248950;79;51569;-75
2022/12/05 12:39:32;;;;;;;;;;;;;;;18.55;56.38;101100.85;2195916;80;51437;-76
2022/12/05 12:42:38;;;;;;;;;;;;;;;18.55;56.31;101098.17;2194910;80;50831;-75
2022/12/05 12:45:41;;;;;;;;;;;;;;;18.53;56.32;101093.52;2184386;80;52601;-75
2022/12/05 12:48:44;;;;;;;;;;;;;;;18.47;56.39;101093.19;2210382;80;50803;-74
2022/12/05 12:51:50;;;;;;;;;;;;;;;18.41;56.47;101084.48;2210624;78;50761;-75
2022/12/05 12:54:53;;;;;;;;;;;;;;;18.36;56.54;101080.14;2210901;80;51653;-75
2022/12/05 12:57:56;;;;;;;;;;;;;;;18.31;56.67;101073.11;2211197;80;52447;-75
2022/12/05 13:01:16;;;;;;;;;;;;;;;18.30;56.69;101077.32;2184664;80;51513;-74
2022/12/05 13:04:24;;;;;;;;;;;;;;;18.26;56.81;101076.80;2172817;82;50269;-75
2022/12/05 13:07:28;;;;;;;;;;;;;;;18.34;56.82;101074.61;2173345;81;51516;-74
2022/12/05 13:10:34;;;;;;;;;;;;;;;18.38;56.98;101076.78;2148663;81;51767;-74
2022/12/05 13:13:37;;;;;;;;;;;;;;;18.48;56.79;101073.92;2194593;80;51580;-74
2022/12/05 13:16:41;;;;;;;;;;;;;;;18.53;56.61;101082.80;2250284;77;51536;-75
2022/12/05 13:19:43;;;;;;;;;;;;;;;18.53;56.52;101074.75;2284096;77;51486;-76
2022/12/05 13:22:45;;;;;;;;;;;;;;;18.51;56.54;101077.59;2274731;77;49609;-75
2022/12/05 13:25:46;;;;;;;;;;;;;;;18.45;56.79;101076.95;2287917;78;51522;-75
2022/12/05 13:28:49;;;;;;;;;;;;;;;18.40;56.88;101078.80;2288152;78;50779;-75
2022/12/05 13:31:51;;;;;;;;;;;;;;;18.38;56.96;101080.80;2287531;78;51638;-74
2022/12/05 13:34:53;;;;;;;;;;;;;;;18.30;57.04;101070.63;2274394;77;51792;-75
2022/12/05 13:44:38;;;;;;;;;;;;;;;18.35;57.03;101074.45;2287860;77;24395;-74
2022/12/05 13:47:48;;;;;;;;;;;;;;;18.44;56.80;101080.11;2243284;78;51762;-74
2022/12/05 13:51:00;;;;;;;;;;;;;;;18.47;56.73;101077.11;2241051;79;50308;-75
2022/12/05 13:54:21;;;;;;;;;;;;;;;18.52;56.68;101081.93;2278724;77;51696;-74
2022/12/05 13:57:30;;;;;;;;;;;;;;;18.56;56.68;101084.61;2280550;78;50689;-75
2022/12/05 14:00:33;;;;;;;;;;;;;;;18.63;56.48;101082.09;2248981;78;51351;-75
2022/12/05 14:03:36;;;;;;;;;;;;;;;18.58;56.58;101080.43;2288919;77;50674;-75
2022/12/05 14:06:39;;;;;;;;;;;;;;;18.55;56.60;101083.43;2287906;78;52237;-75
2022/12/05 14:09:42;;;;;;;;;;;;;;;18.45;56.75;101081.80;2287724;78;51412;-75
2022/12/05 14:12:51;;;;;;;;;;;;;;;18.40;56.84;101085.50;2257642;78;52806;-74
2022/12/05 14:15:53;;;;;;;;;;;;;;;18.36;56.92;101090.02;2273164;77;51747;-74
2022/12/05 14:18:56;;;;;;;;;;;;;;;18.33;56.95;101089.03;2288989;77;51589;-74
2022/12/05 14:22:02;;;;;;;;;;;;;;;18.31;56.90;101090.53;2287816;77;51549;-74
2022/12/05 14:25:15;;;;;;;;;;;;;;;18.30;56.93;101087.53;2261319;78;52603;-73
2022/12/05 14:28:18;;;;;;;;;;;;;;;18.36;56.87;101090.85;2296581;77;50803;-75
2022/12/05 14:31:21;;;;;;;;;;;;;;;18.42;56.76;101085.31;2302882;77;51512;-74
2022/12/05 14:34:24;;;;;;;;;;;;;;;18.51;56.53;101092.33;2302552;77;51494;-75
2022/12/05 14:37:29;;;;;;;;;;;;;;;18.56;56.39;101089.14;2266163;77;51651;-74
2022/12/05 14:40:32;;;;;;;;;;;;;;;18.60;56.22;101080.59;2303203;77;51505;-75
2022/12/05 14:43:33;;;;;;;;;;;;;;;18.60;56.20;101078.39;2302862;77;49977;-75
2022/12/05 14:46:35;;;;;;;;;;;;;;;18.55;56.29;101080.75;2296384;77;50823;-74
2022/12/05 14:49:53;;;;;;;;;;;;;;;18.53;56.29;101084.13;2262786;78;52393;-74
2022/12/05 14:53:13;;;;;;;;;;;;;;;18.46;56.39;101084.80;2274420;77;49965;-75
2022/12/05 14:56:16;;;;;;;;;;;;;;;18.39;56.54;101078.45;2287943;78;50866;-74
2022/12/05 14:59:22;;;;;;;;;;;;;;;18.35;56.67;101083.00;2285891;78;51568;-74
2022/12/05 15:02:29;;;;;;;;;;;;;;;18.32;56.73;101080.16;2264297;77;51729;-73
2022/12/05 15:05:31;;;;;;;;;;;;;;;18.36;56.73;101076.12;2291248;77;51609;-74
2022/12/05 15:08:35;;;;;;;;;;;;;;;18.42;56.66;101075.45;2256397;78;50268;-74
2022/12/05 15:11:36;;;;;;;;;;;;;;;18.48;56.50;101073.41;2248940;77;50411;-74
2022/12/05 15:14:58;;;;;;;;;;;;;;;18.58;56.34;101079.09;2255055;78;51110;-73
2022/12/05 15:18:03;;;;;;;;;;;;;;;18.60;56.29;101073.89;2287289;77;50678;-74
2022/12/05 15:21:06;;;;;;;;;;;;;;;18.67;56.27;101080.72;2285333;77;22700;-73
2022/12/05 15:24:17;;;;;;;;;;;;;;;18.68;56.20;101085.92;2264416;78;51442;-73
2022/12/05 15:27:19;;;;;;;;;;;;;;;18.66;56.20;101081.23;2260375;78;50350;-74
2022/12/05 15:30:20;;;;;;;;;;;;;;;18.56;56.37;101087.80;2255611;78;50354;-74
2022/12/05 15:33:22;;;;;;;;;;;;;;;18.44;56.86;101083.30;2249815;79;50731;-74
2022/12/05 15:36:25;;;;;;;;;;;;;;;18.35;57.20;101089.19;2250081;78;50458;-73
2022/12/05 15:39:27;;;;;;;;;;;;;;;18.31;57.29;101099.91;2280652;77;50747;-73
2022/12/05 15:42:29;;;;;;;;;;;;;;;18.24;57.75;101098.94;2253537;78;50780;-73
2022/12/05 15:45:31;;;;;;;;;;;;;;;18.19;57.93;101097.27;2287250;78;51538;-74
2022/12/05 15:48:33;;;;;;;;;;;;;;;18.21;57.95;101100.11;2276236;78;50293;-74
2022/12/05 15:51:36;;;;;;;;;;;;;;;18.27;57.95;101101.27;2236916;79;51103;-74
2022/12/05 15:54:38;;;;;;;;;;;;;;;18.33;57.98;101096.55;2248718;79;51470;-74